sensor_id;sensor_type;location;lat;lon;timestamp;P1;durP1;ratioP1;P2;durP2;ratioP2
36257;SDS011;22294;52.044;4.582;2022-11-02T00:00:49;13.63;;;2.10;;
36257;SDS011;22294;52.044;4.582;2022-11-02T00:03:15;8.60;;;1.85;;
36257;SDS011;22294;52.044;4.582;2022-11-02T00:05:40;7.22;;;1.65;;
36257;SDS011;22294;52.044;4.582;2022-11-02T00:08:05;9.35;;;1.52;;
36257;SDS011;22294;52.044;4.582;2022-11-02T00:10:31;10.70;;;2.13;;
36257;SDS011;22294;52.044;4.582;2022-11-02T00:12:56;7.50;;;1.73;;
36257;SDS011;22294;52.044;4.582;2022-11-02T00:15:23;8.45;;;1.73;;
36257;SDS011;22294;52.044;4.582;2022-11-02T00:17:55;10.02;;;1.70;;
36257;SDS011;22294;52.044;4.582;2022-11-02T00:20:25;7.85;;;1.80;;
36257;SDS011;22294;52.044;4.582;2022-11-02T00:22:51;9.82;;;1.80;;
36257;SDS011;22294;52.044;4.582;2022-11-02T00:25:21;7.82;;;1.63;;
36257;SDS011;22294;52.044;4.582;2022-11-02T00:27:48;8.70;;;1.30;;
36257;SDS011;22294;52.044;4.582;2022-11-02T00:30:13;8.40;;;1.33;;
36257;SDS011;22294;52.044;4.582;2022-11-02T00:32:39;7.28;;;1.25;;
36257;SDS011;22294;52.044;4.582;2022-11-02T00:35:06;8.82;;;1.52;;
36257;SDS011;22294;52.044;4.582;2022-11-02T00:37:31;8.18;;;1.55;;
36257;SDS011;22294;52.044;4.582;2022-11-02T00:39:56;5.55;;;0.80;;
36257;SDS011;22294;52.044;4.582;2022-11-02T00:42:22;6.20;;;0.90;;
36257;SDS011;22294;52.044;4.582;2022-11-02T00:44:47;4.45;;;0.60;;
36257;SDS011;22294;52.044;4.582;2022-11-02T00:47:12;3.42;;;0.68;;
36257;SDS011;22294;52.044;4.582;2022-11-02T00:49:38;3.08;;;0.80;;
36257;SDS011;22294;52.044;4.582;2022-11-02T00:52:03;3.58;;;0.50;;
36257;SDS011;22294;52.044;4.582;2022-11-02T00:54:28;4.25;;;0.65;;
36257;SDS011;22294;52.044;4.582;2022-11-02T00:56:54;8.50;;;0.60;;
36257;SDS011;22294;52.044;4.582;2022-11-02T00:59:20;5.85;;;0.80;;
36257;SDS011;22294;52.044;4.582;2022-11-02T01:01:45;5.43;;;0.73;;
36257;SDS011;22294;52.044;4.582;2022-11-02T01:04:13;6.45;;;0.93;;
36257;SDS011;22294;52.044;4.582;2022-11-02T01:06:38;5.15;;;0.90;;
36257;SDS011;22294;52.044;4.582;2022-11-02T01:09:04;4.57;;;0.60;;
36257;SDS011;22294;52.044;4.582;2022-11-02T01:11:29;5.25;;;0.70;;
36257;SDS011;22294;52.044;4.582;2022-11-02T01:13:54;10.32;;;1.45;;
36257;SDS011;22294;52.044;4.582;2022-11-02T01:16:20;3.50;;;0.82;;
36257;SDS011;22294;52.044;4.582;2022-11-02T01:18:45;3.22;;;1.02;;
36257;SDS011;22294;52.044;4.582;2022-11-02T01:21:10;7.20;;;0.93;;
36257;SDS011;22294;52.044;4.582;2022-11-02T01:23:36;5.65;;;0.95;;
36257;SDS011;22294;52.044;4.582;2022-11-02T01:26:03;6.32;;;0.95;;
36257;SDS011;22294;52.044;4.582;2022-11-02T01:28:30;8.05;;;1.35;;
36257;SDS011;22294;52.044;4.582;2022-11-02T01:30:55;5.70;;;0.90;;
36257;SDS011;22294;52.044;4.582;2022-11-02T01:33:20;9.48;;;1.33;;
36257;SDS011;22294;52.044;4.582;2022-11-02T01:35:46;8.63;;;0.82;;
36257;SDS011;22294;52.044;4.582;2022-11-02T01:38:11;6.57;;;1.48;;
36257;SDS011;22294;52.044;4.582;2022-11-02T01:40:37;5.32;;;0.80;;
36257;SDS011;22294;52.044;4.582;2022-11-02T01:43:19;7.85;;;1.42;;
36257;SDS011;22294;52.044;4.582;2022-11-02T01:45:46;7.65;;;1.20;;
36257;SDS011;22294;52.044;4.582;2022-11-02T01:48:13;10.88;;;1.50;;
36257;SDS011;22294;52.044;4.582;2022-11-02T01:50:39;5.85;;;1.17;;
36257;SDS011;22294;52.044;4.582;2022-11-02T01:53:07;9.50;;;1.17;;
36257;SDS011;22294;52.044;4.582;2022-11-02T01:55:33;9.45;;;1.50;;
36257;SDS011;22294;52.044;4.582;2022-11-02T01:58:03;8.18;;;1.13;;
36257;SDS011;22294;52.044;4.582;2022-11-02T02:00:31;6.13;;;1.10;;
36257;SDS011;22294;52.044;4.582;2022-11-02T02:03:08;6.88;;;1.13;;
36257;SDS011;22294;52.044;4.582;2022-11-02T02:05:35;7.63;;;1.40;;
36257;SDS011;22294;52.044;4.582;2022-11-02T02:08:04;10.63;;;1.38;;
36257;SDS011;22294;52.044;4.582;2022-11-02T02:10:32;8.95;;;1.13;;
36257;SDS011;22294;52.044;4.582;2022-11-02T02:12:58;8.95;;;1.75;;
36257;SDS011;22294;52.044;4.582;2022-11-02T02:15:24;7.38;;;1.42;;
36257;SDS011;22294;52.044;4.582;2022-11-02T02:18:01;9.90;;;1.88;;
36257;SDS011;22294;52.044;4.582;2022-11-02T02:31:24;9.05;;;1.52;;
36257;SDS011;22294;52.044;4.582;2022-11-02T02:36:46;7.05;;;1.23;;
36257;SDS011;22294;52.044;4.582;2022-11-02T02:39:22;6.18;;;1.10;;
36257;SDS011;22294;52.044;4.582;2022-11-02T02:41:58;7.70;;;1.25;;
36257;SDS011;22294;52.044;4.582;2022-11-02T02:44:33;14.38;;;1.80;;
36257;SDS011;22294;52.044;4.582;2022-11-02T02:47:03;9.60;;;1.83;;
36257;SDS011;22294;52.044;4.582;2022-11-02T02:49:47;8.88;;;1.65;;
36257;SDS011;22294;52.044;4.582;2022-11-02T02:52:16;7.53;;;1.48;;
36257;SDS011;22294;52.044;4.582;2022-11-02T02:54:44;9.10;;;1.77;;
36257;SDS011;22294;52.044;4.582;2022-11-02T02:57:13;9.60;;;2.08;;
36257;SDS011;22294;52.044;4.582;2022-11-02T02:59:46;12.02;;;2.00;;
36257;SDS011;22294;52.044;4.582;2022-11-02T03:02:25;7.30;;;1.67;;
36257;SDS011;22294;52.044;4.582;2022-11-02T03:04:55;10.70;;;2.03;;
36257;SDS011;22294;52.044;4.582;2022-11-02T03:07:24;9.70;;;2.22;;
36257;SDS011;22294;52.044;4.582;2022-11-02T03:10:05;5.28;;;2.03;;
36257;SDS011;22294;52.044;4.582;2022-11-02T03:15:14;8.30;;;1.52;;
36257;SDS011;22294;52.044;4.582;2022-11-02T03:20:58;10.90;;;2.10;;
36257;SDS011;22294;52.044;4.582;2022-11-02T03:24:11;11.93;;;1.95;;
36257;SDS011;22294;52.044;4.582;2022-11-02T03:26:31;15.85;;;2.70;;
36257;SDS011;22294;52.044;4.582;2022-11-02T03:29:11;10.52;;;2.20;;
36257;SDS011;22294;52.044;4.582;2022-11-02T03:31:41;15.07;;;2.60;;
36257;SDS011;22294;52.044;4.582;2022-11-02T03:39:10;18.07;;;2.50;;
36257;SDS011;22294;52.044;4.582;2022-11-02T03:41:40;14.77;;;2.70;;
36257;SDS011;22294;52.044;4.582;2022-11-02T03:44:13;18.13;;;2.40;;
36257;SDS011;22294;52.044;4.582;2022-11-02T03:46:43;16.42;;;3.10;;
36257;SDS011;22294;52.044;4.582;2022-11-02T03:49:11;14.07;;;2.85;;
36257;SDS011;22294;52.044;4.582;2022-11-02T03:51:41;12.43;;;2.10;;
36257;SDS011;22294;52.044;4.582;2022-11-02T03:54:24;16.77;;;2.70;;
36257;SDS011;22294;52.044;4.582;2022-11-02T03:57:03;14.30;;;2.63;;
36257;SDS011;22294;52.044;4.582;2022-11-02T03:59:31;16.42;;;2.60;;
36257;SDS011;22294;52.044;4.582;2022-11-02T04:01:56;12.02;;;1.92;;
36257;SDS011;22294;52.044;4.582;2022-11-02T04:04:23;14.93;;;2.72;;
36257;SDS011;22294;52.044;4.582;2022-11-02T04:06:48;13.23;;;2.55;;
36257;SDS011;22294;52.044;4.582;2022-11-02T04:09:14;13.35;;;2.33;;
36257;SDS011;22294;52.044;4.582;2022-11-02T04:11:41;16.65;;;2.05;;
36257;SDS011;22294;52.044;4.582;2022-11-02T04:14:25;16.23;;;2.65;;
36257;SDS011;22294;52.044;4.582;2022-11-02T04:17:03;19.42;;;2.65;;
36257;SDS011;22294;52.044;4.582;2022-11-02T04:19:50;16.92;;;2.72;;
36257;SDS011;22294;52.044;4.582;2022-11-02T04:22:17;14.35;;;2.47;;
36257;SDS011;22294;52.044;4.582;2022-11-02T04:25:01;14.63;;;2.17;;
36257;SDS011;22294;52.044;4.582;2022-11-02T04:27:49;14.90;;;2.42;;
36257;SDS011;22294;52.044;4.582;2022-11-02T04:30:17;11.77;;;2.80;;
36257;SDS011;22294;52.044;4.582;2022-11-02T04:32:46;14.27;;;2.17;;
36257;SDS011;22294;52.044;4.582;2022-11-02T04:35:31;15.07;;;2.13;;
36257;SDS011;22294;52.044;4.582;2022-11-02T04:37:58;11.93;;;2.30;;
36257;SDS011;22294;52.044;4.582;2022-11-02T04:40:43;14.00;;;2.15;;
36257;SDS011;22294;52.044;4.582;2022-11-02T04:43:08;17.20;;;2.17;;
36257;SDS011;22294;52.044;4.582;2022-11-02T04:45:34;16.10;;;2.75;;
36257;SDS011;22294;52.044;4.582;2022-11-02T04:48:00;16.63;;;2.30;;
36257;SDS011;22294;52.044;4.582;2022-11-02T04:50:26;15.05;;;2.38;;
36257;SDS011;22294;52.044;4.582;2022-11-02T04:52:55;16.30;;;1.80;;
36257;SDS011;22294;52.044;4.582;2022-11-02T04:55:22;12.13;;;2.03;;
36257;SDS011;22294;52.044;4.582;2022-11-02T04:57:47;12.02;;;2.00;;
36257;SDS011;22294;52.044;4.582;2022-11-02T05:00:13;23.88;;;2.60;;
36257;SDS011;22294;52.044;4.582;2022-11-02T05:02:39;17.42;;;2.13;;
36257;SDS011;22294;52.044;4.582;2022-11-02T05:05:04;14.88;;;2.17;;
36257;SDS011;22294;52.044;4.582;2022-11-02T05:07:30;16.90;;;1.92;;
36257;SDS011;22294;52.044;4.582;2022-11-02T05:09:55;12.18;;;1.38;;
36257;SDS011;22294;52.044;4.582;2022-11-02T05:12:21;10.18;;;1.75;;
36257;SDS011;22294;52.044;4.582;2022-11-02T05:14:46;9.75;;;1.60;;
36257;SDS011;22294;52.044;4.582;2022-11-02T05:17:11;10.52;;;1.50;;
36257;SDS011;22294;52.044;4.582;2022-11-02T05:19:37;16.73;;;2.58;;
36257;SDS011;22294;52.044;4.582;2022-11-02T05:22:02;12.45;;;2.10;;
36257;SDS011;22294;52.044;4.582;2022-11-02T05:24:27;12.32;;;1.80;;
36257;SDS011;22294;52.044;4.582;2022-11-02T05:26:53;10.63;;;1.80;;
36257;SDS011;22294;52.044;4.582;2022-11-02T05:29:18;13.55;;;1.48;;
36257;SDS011;22294;52.044;4.582;2022-11-02T05:31:43;11.57;;;1.50;;
36257;SDS011;22294;52.044;4.582;2022-11-02T05:34:09;10.20;;;1.10;;
36257;SDS011;22294;52.044;4.582;2022-11-02T05:36:34;8.00;;;1.15;;
36257;SDS011;22294;52.044;4.582;2022-11-02T05:38:59;10.55;;;1.27;;
36257;SDS011;22294;52.044;4.582;2022-11-02T05:41:24;8.25;;;1.60;;
36257;SDS011;22294;52.044;4.582;2022-11-02T05:43:50;8.70;;;1.65;;
36257;SDS011;22294;52.044;4.582;2022-11-02T05:46:15;10.02;;;1.20;;
36257;SDS011;22294;52.044;4.582;2022-11-02T05:48:40;10.43;;;1.20;;
36257;SDS011;22294;52.044;4.582;2022-11-02T05:51:08;7.43;;;1.15;;
36257;SDS011;22294;52.044;4.582;2022-11-02T05:53:34;9.07;;;1.38;;
36257;SDS011;22294;52.044;4.582;2022-11-02T05:56:02;7.78;;;1.48;;
36257;SDS011;22294;52.044;4.582;2022-11-02T05:58:29;11.82;;;1.77;;
36257;SDS011;22294;52.044;4.582;2022-11-02T06:01:03;10.15;;;1.60;;
36257;SDS011;22294;52.044;4.582;2022-11-02T06:03:30;8.43;;;1.60;;
36257;SDS011;22294;52.044;4.582;2022-11-02T06:05:57;9.68;;;1.00;;
36257;SDS011;22294;52.044;4.582;2022-11-02T06:08:23;12.95;;;1.70;;
36257;SDS011;22294;52.044;4.582;2022-11-02T06:10:49;6.55;;;1.30;;
36257;SDS011;22294;52.044;4.582;2022-11-02T06:13:14;8.70;;;1.40;;
36257;SDS011;22294;52.044;4.582;2022-11-02T06:15:39;13.40;;;1.90;;
36257;SDS011;22294;52.044;4.582;2022-11-02T06:18:04;6.80;;;1.60;;
36257;SDS011;22294;52.044;4.582;2022-11-02T06:20:30;10.38;;;2.03;;
36257;SDS011;22294;52.044;4.582;2022-11-02T06:22:55;12.65;;;1.50;;
36257;SDS011;22294;52.044;4.582;2022-11-02T06:25:20;12.93;;;1.50;;
36257;SDS011;22294;52.044;4.582;2022-11-02T06:27:49;5.85;;;1.60;;
36257;SDS011;22294;52.044;4.582;2022-11-02T06:30:17;8.75;;;1.65;;
36257;SDS011;22294;52.044;4.582;2022-11-02T06:32:46;8.88;;;1.20;;
36257;SDS011;22294;52.044;4.582;2022-11-02T06:35:12;9.48;;;1.88;;
36257;SDS011;22294;52.044;4.582;2022-11-02T06:37:38;10.80;;;1.55;;
36257;SDS011;22294;52.044;4.582;2022-11-02T06:40:03;11.13;;;1.38;;
36257;SDS011;22294;52.044;4.582;2022-11-02T06:42:29;11.10;;;2.08;;
36257;SDS011;22294;52.044;4.582;2022-11-02T06:44:54;8.40;;;1.73;;
36257;SDS011;22294;52.044;4.582;2022-11-02T06:47:27;11.82;;;2.03;;
36257;SDS011;22294;52.044;4.582;2022-11-02T06:49:54;10.88;;;1.55;;
36257;SDS011;22294;52.044;4.582;2022-11-02T06:52:19;8.80;;;1.42;;
36257;SDS011;22294;52.044;4.582;2022-11-02T06:54:44;14.45;;;2.35;;
36257;SDS011;22294;52.044;4.582;2022-11-02T06:57:10;9.38;;;1.73;;
36257;SDS011;22294;52.044;4.582;2022-11-02T06:59:36;10.60;;;1.85;;
36257;SDS011;22294;52.044;4.582;2022-11-02T07:02:01;15.48;;;1.73;;
36257;SDS011;22294;52.044;4.582;2022-11-02T07:04:27;8.15;;;1.20;;
36257;SDS011;22294;52.044;4.582;2022-11-02T07:06:52;5.87;;;1.40;;
36257;SDS011;22294;52.044;4.582;2022-11-02T07:09:17;9.90;;;1.42;;
36257;SDS011;22294;52.044;4.582;2022-11-02T07:11:42;8.18;;;1.40;;
36257;SDS011;22294;52.044;4.582;2022-11-02T07:14:08;11.38;;;1.50;;
36257;SDS011;22294;52.044;4.582;2022-11-02T07:16:33;11.38;;;1.20;;
36257;SDS011;22294;52.044;4.582;2022-11-02T07:18:58;7.28;;;1.35;;
36257;SDS011;22294;52.044;4.582;2022-11-02T07:21:24;8.30;;;1.17;;
36257;SDS011;22294;52.044;4.582;2022-11-02T07:23:49;12.05;;;2.28;;
36257;SDS011;22294;52.044;4.582;2022-11-02T07:26:14;11.20;;;1.42;;
36257;SDS011;22294;52.044;4.582;2022-11-02T07:28:39;8.60;;;1.90;;
36257;SDS011;22294;52.044;4.582;2022-11-02T07:31:05;13.52;;;2.40;;
36257;SDS011;22294;52.044;4.582;2022-11-02T07:33:30;9.07;;;1.75;;
36257;SDS011;22294;52.044;4.582;2022-11-02T07:35:56;12.05;;;1.60;;
36257;SDS011;22294;52.044;4.582;2022-11-02T07:38:21;9.77;;;1.25;;
36257;SDS011;22294;52.044;4.582;2022-11-02T07:40:47;12.27;;;1.80;;
36257;SDS011;22294;52.044;4.582;2022-11-02T07:43:14;12.63;;;1.80;;
36257;SDS011;22294;52.044;4.582;2022-11-02T07:45:39;17.83;;;2.13;;
36257;SDS011;22294;52.044;4.582;2022-11-02T07:48:05;12.02;;;1.38;;
36257;SDS011;22294;52.044;4.582;2022-11-02T07:50:30;14.55;;;1.52;;
36257;SDS011;22294;52.044;4.582;2022-11-02T07:52:56;11.95;;;1.95;;
36257;SDS011;22294;52.044;4.582;2022-11-02T07:55:22;6.43;;;1.33;;
36257;SDS011;22294;52.044;4.582;2022-11-02T07:57:56;9.95;;;2.28;;
36257;SDS011;22294;52.044;4.582;2022-11-02T08:00:27;15.38;;;2.33;;
36257;SDS011;22294;52.044;4.582;2022-11-02T08:02:55;10.60;;;1.73;;
36257;SDS011;22294;52.044;4.582;2022-11-02T08:05:21;9.70;;;1.52;;
36257;SDS011;22294;52.044;4.582;2022-11-02T08:07:54;8.85;;;1.63;;
36257;SDS011;22294;52.044;4.582;2022-11-02T08:10:21;10.95;;;2.05;;
36257;SDS011;22294;52.044;4.582;2022-11-02T08:12:46;10.20;;;2.85;;
36257;SDS011;22294;52.044;4.582;2022-11-02T08:15:11;11.40;;;1.67;;
36257;SDS011;22294;52.044;4.582;2022-11-02T08:17:36;13.25;;;1.65;;
36257;SDS011;22294;52.044;4.582;2022-11-02T08:20:02;10.55;;;1.70;;
36257;SDS011;22294;52.044;4.582;2022-11-02T08:22:27;10.02;;;1.58;;
36257;SDS011;22294;52.044;4.582;2022-11-02T08:24:53;8.57;;;1.75;;
36257;SDS011;22294;52.044;4.582;2022-11-02T08:27:18;9.65;;;2.10;;
36257;SDS011;22294;52.044;4.582;2022-11-02T08:29:43;13.13;;;1.88;;
36257;SDS011;22294;52.044;4.582;2022-11-02T08:32:08;10.90;;;1.75;;
36257;SDS011;22294;52.044;4.582;2022-11-02T08:34:34;13.35;;;1.88;;
36257;SDS011;22294;52.044;4.582;2022-11-02T08:36:59;8.43;;;1.90;;
36257;SDS011;22294;52.044;4.582;2022-11-02T08:39:24;13.80;;;2.33;;
36257;SDS011;22294;52.044;4.582;2022-11-02T08:41:49;9.88;;;1.50;;
36257;SDS011;22294;52.044;4.582;2022-11-02T08:44:15;13.32;;;2.08;;
36257;SDS011;22294;52.044;4.582;2022-11-02T08:46:40;11.20;;;1.70;;
36257;SDS011;22294;52.044;4.582;2022-11-02T08:49:05;12.82;;;2.00;;
36257;SDS011;22294;52.044;4.582;2022-11-02T08:51:30;14.43;;;1.77;;
36257;SDS011;22294;52.044;4.582;2022-11-02T08:53:56;11.27;;;1.58;;
36257;SDS011;22294;52.044;4.582;2022-11-02T08:56:21;11.35;;;1.65;;
36257;SDS011;22294;52.044;4.582;2022-11-02T08:58:46;10.88;;;1.58;;
36257;SDS011;22294;52.044;4.582;2022-11-02T09:01:12;6.93;;;1.73;;
36257;SDS011;22294;52.044;4.582;2022-11-02T09:03:37;9.68;;;1.48;;
36257;SDS011;22294;52.044;4.582;2022-11-02T09:06:02;9.45;;;1.23;;
36257;SDS011;22294;52.044;4.582;2022-11-02T09:08:28;9.60;;;1.75;;
36257;SDS011;22294;52.044;4.582;2022-11-02T09:10:56;8.90;;;1.70;;
36257;SDS011;22294;52.044;4.582;2022-11-02T09:13:23;14.32;;;1.70;;
36257;SDS011;22294;52.044;4.582;2022-11-02T09:15:50;8.88;;;1.77;;
36257;SDS011;22294;52.044;4.582;2022-11-02T09:18:17;14.05;;;1.30;;
36257;SDS011;22294;52.044;4.582;2022-11-02T09:20:42;10.05;;;1.27;;
36257;SDS011;22294;52.044;4.582;2022-11-02T09:23:08;7.72;;;1.60;;
36257;SDS011;22294;52.044;4.582;2022-11-02T09:25:34;14.27;;;1.70;;
36257;SDS011;22294;52.044;4.582;2022-11-02T09:27:59;12.40;;;1.70;;
36257;SDS011;22294;52.044;4.582;2022-11-02T09:30:25;11.93;;;1.98;;
36257;SDS011;22294;52.044;4.582;2022-11-02T09:32:59;9.85;;;1.70;;
36257;SDS011;22294;52.044;4.582;2022-11-02T09:35:27;10.43;;;1.92;;
36257;SDS011;22294;52.044;4.582;2022-11-02T09:37:53;13.65;;;1.75;;
36257;SDS011;22294;52.044;4.582;2022-11-02T09:40:22;12.18;;;1.65;;
36257;SDS011;22294;52.044;4.582;2022-11-02T09:45:24;13.30;;;1.85;;
36257;SDS011;22294;52.044;4.582;2022-11-02T09:48:00;14.82;;;1.70;;
36257;SDS011;22294;52.044;4.582;2022-11-02T09:50:29;12.48;;;1.50;;
36257;SDS011;22294;52.044;4.582;2022-11-02T09:53:03;14.18;;;2.17;;
36257;SDS011;22294;52.044;4.582;2022-11-02T09:55:35;11.50;;;2.10;;
36257;SDS011;22294;52.044;4.582;2022-11-02T09:58:06;7.50;;;1.75;;
36257;SDS011;22294;52.044;4.582;2022-11-02T10:00:39;13.45;;;1.67;;
36257;SDS011;22294;52.044;4.582;2022-11-02T10:03:15;12.77;;;1.83;;
36257;SDS011;22294;52.044;4.582;2022-11-02T10:05:55;14.50;;;2.15;;
36257;SDS011;22294;52.044;4.582;2022-11-02T10:08:31;7.20;;;1.55;;
36257;SDS011;22294;52.044;4.582;2022-11-02T10:18:53;11.15;;;1.92;;
36257;SDS011;22294;52.044;4.582;2022-11-02T10:21:30;13.32;;;1.60;;
36257;SDS011;22294;52.044;4.582;2022-11-02T10:23:57;11.30;;;1.48;;
36257;SDS011;22294;52.044;4.582;2022-11-02T10:26:27;13.15;;;2.05;;
36257;SDS011;22294;52.044;4.582;2022-11-02T10:29:02;9.57;;;2.03;;
36257;SDS011;22294;52.044;4.582;2022-11-02T10:31:34;17.42;;;2.35;;
36257;SDS011;22294;52.044;4.582;2022-11-02T10:42:27;14.93;;;2.85;;
36257;SDS011;22294;52.044;4.582;2022-11-02T10:48:41;13.13;;;2.33;;
36257;SDS011;22294;52.044;4.582;2022-11-02T10:51:27;13.57;;;1.83;;
36257;SDS011;22294;52.044;4.582;2022-11-02T10:53:54;12.00;;;1.77;;
36257;SDS011;22294;52.044;4.582;2022-11-02T10:56:20;11.07;;;1.92;;
36257;SDS011;22294;52.044;4.582;2022-11-02T10:58:53;11.23;;;2.10;;
36257;SDS011;22294;52.044;4.582;2022-11-02T11:06:48;16.90;;;2.13;;
36257;SDS011;22294;52.044;4.582;2022-11-02T11:09:22;11.73;;;1.83;;
36257;SDS011;22294;52.044;4.582;2022-11-02T11:12:02;14.32;;;1.90;;
36257;SDS011;22294;52.044;4.582;2022-11-02T11:14:32;14.90;;;2.25;;
36257;SDS011;22294;52.044;4.582;2022-11-02T11:17:03;16.45;;;2.28;;
36257;SDS011;22294;52.044;4.582;2022-11-02T11:20:00;16.17;;;2.38;;
36257;SDS011;22294;52.044;4.582;2022-11-02T11:22:28;12.98;;;2.30;;
36257;SDS011;22294;52.044;4.582;2022-11-02T11:27:43;12.55;;;1.63;;
36257;SDS011;22294;52.044;4.582;2022-11-02T11:33:00;14.05;;;2.58;;
36257;SDS011;22294;52.044;4.582;2022-11-02T11:35:32;12.77;;;2.42;;
36257;SDS011;22294;52.044;4.582;2022-11-02T11:38:00;16.58;;;2.10;;
36257;SDS011;22294;52.044;4.582;2022-11-02T11:40:30;9.40;;;1.88;;
36257;SDS011;22294;52.044;4.582;2022-11-02T11:42:58;14.82;;;2.85;;
36257;SDS011;22294;52.044;4.582;2022-11-02T11:45:26;12.23;;;1.88;;
36257;SDS011;22294;52.044;4.582;2022-11-02T11:50:46;9.68;;;2.10;;
36257;SDS011;22294;52.044;4.582;2022-11-02T11:53:16;7.57;;;1.65;;
36257;SDS011;22294;52.044;4.582;2022-11-02T11:55:49;8.70;;;2.63;;
36257;SDS011;22294;52.044;4.582;2022-11-02T12:03:52;12.13;;;2.03;;
36257;SDS011;22294;52.044;4.582;2022-11-02T12:07:07;11.75;;;2.38;;
36257;SDS011;22294;52.044;4.582;2022-11-02T12:09:29;11.57;;;1.85;;
36257;SDS011;22294;52.044;4.582;2022-11-02T12:14:37;13.10;;;2.30;;
36257;SDS011;22294;52.044;4.582;2022-11-02T12:17:22;9.20;;;1.50;;
36257;SDS011;22294;52.044;4.582;2022-11-02T12:39:07;16.75;;;3.13;;
36257;SDS011;22294;52.044;4.582;2022-11-02T12:44:40;13.77;;;2.13;;
36257;SDS011;22294;52.044;4.582;2022-11-02T12:47:21;11.48;;;2.47;;
36257;SDS011;22294;52.044;4.582;2022-11-02T12:50:07;13.13;;;2.72;;
36257;SDS011;22294;52.044;4.582;2022-11-02T12:55:39;11.90;;;2.25;;
36257;SDS011;22294;52.044;4.582;2022-11-02T12:58:16;12.45;;;2.47;;
36257;SDS011;22294;52.044;4.582;2022-11-02T13:01:07;9.23;;;1.52;;
36257;SDS011;22294;52.044;4.582;2022-11-02T13:06:42;17.50;;;2.53;;
36257;SDS011;22294;52.044;4.582;2022-11-02T13:11:59;12.88;;;2.20;;
36257;SDS011;22294;52.044;4.582;2022-11-02T13:14:29;14.63;;;2.72;;
36257;SDS011;22294;52.044;4.582;2022-11-02T13:17:11;9.68;;;1.92;;
36257;SDS011;22294;52.044;4.582;2022-11-02T13:19:47;11.88;;;2.30;;
36257;SDS011;22294;52.044;4.582;2022-11-02T13:22:17;17.92;;;2.50;;
36257;SDS011;22294;52.044;4.582;2022-11-02T13:24:49;10.88;;;1.88;;
36257;SDS011;22294;52.044;4.582;2022-11-02T13:27:35;11.15;;;2.25;;
36257;SDS011;22294;52.044;4.582;2022-11-02T13:30:13;16.40;;;2.75;;
36257;SDS011;22294;52.044;4.582;2022-11-02T13:32:42;17.67;;;3.05;;
36257;SDS011;22294;52.044;4.582;2022-11-02T13:38:00;12.90;;;2.55;;
36257;SDS011;22294;52.044;4.582;2022-11-02T13:40:37;12.35;;;2.60;;
36257;SDS011;22294;52.044;4.582;2022-11-02T13:51:30;14.90;;;3.00;;
36257;SDS011;22294;52.044;4.582;2022-11-02T13:54:22;17.65;;;3.10;;
36257;SDS011;22294;52.044;4.582;2022-11-02T13:56:55;17.70;;;3.58;;
36257;SDS011;22294;52.044;4.582;2022-11-02T13:59:24;12.50;;;2.55;;
36257;SDS011;22294;52.044;4.582;2022-11-02T14:01:55;18.48;;;3.45;;
36257;SDS011;22294;52.044;4.582;2022-11-02T14:04:24;18.33;;;3.72;;
36257;SDS011;22294;52.044;4.582;2022-11-02T14:14:41;16.33;;;3.13;;
36257;SDS011;22294;52.044;4.582;2022-11-02T14:17:15;17.63;;;3.17;;
36257;SDS011;22294;52.044;4.582;2022-11-02T14:22:13;12.32;;;2.67;;
36257;SDS011;22294;52.044;4.582;2022-11-02T14:34:51;13.80;;;3.05;;
36257;SDS011;22294;52.044;4.582;2022-11-02T14:40:28;18.88;;;2.83;;
36257;SDS011;22294;52.044;4.582;2022-11-02T14:46:10;14.52;;;2.17;;
36257;SDS011;22294;52.044;4.582;2022-11-02T14:48:47;14.15;;;2.28;;
36257;SDS011;22294;52.044;4.582;2022-11-02T14:51:21;15.90;;;2.45;;
36257;SDS011;22294;52.044;4.582;2022-11-02T14:53:54;12.40;;;1.92;;
36257;SDS011;22294;52.044;4.582;2022-11-02T14:56:22;11.05;;;1.88;;
36257;SDS011;22294;52.044;4.582;2022-11-02T14:58:50;16.17;;;2.85;;
36257;SDS011;22294;52.044;4.582;2022-11-02T15:01:19;15.70;;;2.67;;
36257;SDS011;22294;52.044;4.582;2022-11-02T15:03:45;14.13;;;2.50;;
36257;SDS011;22294;52.044;4.582;2022-11-02T15:14:53;19.20;;;2.42;;
36257;SDS011;22294;52.044;4.582;2022-11-02T15:17:00;11.30;;;2.08;;
36257;SDS011;22294;52.044;4.582;2022-11-02T15:19:40;16.40;;;2.67;;
36257;SDS011;22294;52.044;4.582;2022-11-02T15:25:03;13.80;;;2.40;;
36257;SDS011;22294;52.044;4.582;2022-11-02T15:27:45;12.20;;;2.00;;
36257;SDS011;22294;52.044;4.582;2022-11-02T15:30:17;11.35;;;2.10;;
36257;SDS011;22294;52.044;4.582;2022-11-02T15:32:45;18.40;;;2.85;;
36257;SDS011;22294;52.044;4.582;2022-11-02T15:35:18;10.75;;;1.88;;
36257;SDS011;22294;52.044;4.582;2022-11-02T15:37:55;13.93;;;2.28;;
36257;SDS011;22294;52.044;4.582;2022-11-02T15:40:26;13.13;;;2.15;;
36257;SDS011;22294;52.044;4.582;2022-11-02T15:53:32;12.45;;;1.92;;
36257;SDS011;22294;52.044;4.582;2022-11-02T16:01:34;13.85;;;2.15;;
36257;SDS011;22294;52.044;4.582;2022-11-02T16:04:00;11.18;;;1.80;;
36257;SDS011;22294;52.044;4.582;2022-11-02T16:12:08;13.82;;;1.70;;
36257;SDS011;22294;52.044;4.582;2022-11-02T16:14:38;11.85;;;2.30;;
36257;SDS011;22294;52.044;4.582;2022-11-02T16:17:04;7.75;;;1.67;;
36257;SDS011;22294;52.044;4.582;2022-11-02T16:19:30;12.75;;;2.15;;
36257;SDS011;22294;52.044;4.582;2022-11-02T16:21:55;7.97;;;2.05;;
36257;SDS011;22294;52.044;4.582;2022-11-02T16:24:21;14.57;;;2.08;;
36257;SDS011;22294;52.044;4.582;2022-11-02T16:26:47;13.32;;;2.03;;
36257;SDS011;22294;52.044;4.582;2022-11-02T16:29:26;16.20;;;2.15;;
36257;SDS011;22294;52.044;4.582;2022-11-02T16:31:55;12.15;;;2.03;;
36257;SDS011;22294;52.044;4.582;2022-11-02T16:34:21;13.73;;;1.88;;
36257;SDS011;22294;52.044;4.582;2022-11-02T16:36:50;9.70;;;2.20;;
36257;SDS011;22294;52.044;4.582;2022-11-02T16:39:17;11.93;;;2.05;;
36257;SDS011;22294;52.044;4.582;2022-11-02T16:41:52;10.35;;;1.80;;
36257;SDS011;22294;52.044;4.582;2022-11-02T16:44:27;13.68;;;2.38;;
36257;SDS011;22294;52.044;4.582;2022-11-02T16:46:59;17.38;;;3.83;;
36257;SDS011;22294;52.044;4.582;2022-11-02T16:49:30;8.60;;;1.92;;
36257;SDS011;22294;52.044;4.582;2022-11-02T16:51:59;11.60;;;2.00;;
36257;SDS011;22294;52.044;4.582;2022-11-02T16:54:40;14.50;;;2.53;;
36257;SDS011;22294;52.044;4.582;2022-11-02T16:59:35;13.70;;;2.45;;
36257;SDS011;22294;52.044;4.582;2022-11-02T17:02:01;8.48;;;2.13;;
36257;SDS011;22294;52.044;4.582;2022-11-02T17:04:28;13.80;;;2.30;;
36257;SDS011;22294;52.044;4.582;2022-11-02T17:07:19;14.35;;;2.13;;
36257;SDS011;22294;52.044;4.582;2022-11-02T17:09:54;15.63;;;2.40;;
36257;SDS011;22294;52.044;4.582;2022-11-02T17:12:22;11.60;;;2.22;;
36257;SDS011;22294;52.044;4.582;2022-11-02T17:14:55;15.23;;;2.55;;
36257;SDS011;22294;52.044;4.582;2022-11-02T17:19:47;13.93;;;2.87;;
36257;SDS011;22294;52.044;4.582;2022-11-02T17:22:29;17.88;;;2.92;;
36257;SDS011;22294;52.044;4.582;2022-11-02T17:25:01;7.82;;;2.22;;
36257;SDS011;22294;52.044;4.582;2022-11-02T17:27:27;14.00;;;3.03;;
36257;SDS011;22294;52.044;4.582;2022-11-02T17:29:57;11.20;;;1.92;;
36257;SDS011;22294;52.044;4.582;2022-11-02T17:32:22;12.02;;;2.58;;
36257;SDS011;22294;52.044;4.582;2022-11-02T17:34:48;12.35;;;2.40;;
36257;SDS011;22294;52.044;4.582;2022-11-02T17:37:22;13.23;;;2.65;;
36257;SDS011;22294;52.044;4.582;2022-11-02T17:39:55;9.95;;;2.28;;
36257;SDS011;22294;52.044;4.582;2022-11-02T17:42:23;10.18;;;2.05;;
36257;SDS011;22294;52.044;4.582;2022-11-02T17:45:27;9.88;;;2.05;;
36257;SDS011;22294;52.044;4.582;2022-11-02T17:47:53;14.90;;;2.30;;